Time;durP1;ratioP1;P1;durP2;ratioP2;P2;SDS_P1;SDS_P2;PMS_P1;PMS_P2;Temp;Humidity;BMP_temperature;BMP_pressure;BME280_temperature;BME280_humidity;BME280_pressure;Samples;Min_cycle;Max_cycle;Signal;HPM_P1;HPM_P2
2022/05/23 00:00:05;;;;;;;6.38;3.42;;;22.10;89.80;;;;;;5057763;28;20070;-83
2022/05/23 00:02:32;;;;;;;6.35;2.80;;;22.20;89.90;;;;;;5041362;28;20055;-84
2022/05/23 00:05:00;;;;;;;4.88;3.13;;;22.10;90.00;;;;;;5057286;28;20524;-84
2022/05/23 00:07:29;;;;;;;4.95;3.10;;;22.00;90.10;;;;;;5057247;28;20040;-83
2022/05/23 00:09:57;;;;;;;8.23;3.55;;;22.00;90.20;;;;;;5073839;28;20091;-83
2022/05/23 00:12:26;;;;;;;5.32;3.85;;;21.90;90.20;;;;;;5057509;28;20398;-83
2022/05/23 00:14:54;;;;;;;6.25;3.78;;;21.80;90.40;;;;;;5057277;28;20054;-83
2022/05/23 00:17:22;;;;;;;8.75;3.60;;;21.80;90.60;;;;;;5040970;28;20055;-83
2022/05/23 00:19:50;;;;;;;5.93;3.45;;;21.70;90.80;;;;;;5073620;28;20079;-83
2022/05/23 00:22:18;;;;;;;6.45;3.25;;;21.70;90.90;;;;;;5073540;28;20040;-83
2022/05/23 00:24:46;;;;;;;5.57;3.30;;;21.80;91.00;;;;;;5057060;28;20048;-82
2022/05/23 00:27:20;;;;;;;7.78;3.53;;;21.80;90.90;;;;;;5057462;28;20048;-83
2022/05/23 00:29:50;;;;;;;5.38;3.67;;;21.90;90.90;;;;;;5057164;28;20040;-83
2022/05/23 00:35:17;;;;;;;4.15;2.58;;;21.90;90.90;;;;;;5085082;28;20051;-83
2022/05/23 00:37:52;;;;;;;5.13;2.97;;;21.90;90.80;;;;;;5037564;28;20055;-83
2022/05/23 00:40:22;;;;;;;6.38;3.42;;;21.80;91.00;;;;;;5053586;28;20064;-83
2022/05/23 00:45:36;;;;;;;7.40;3.20;;;21.50;91.40;;;;;;5053193;28;20068;-83
2022/05/23 00:48:04;;;;;;;6.13;2.97;;;21.40;91.80;;;;;;5019838;28;20094;-83
2022/05/23 00:50:34;;;;;;;4.70;3.15;;;21.40;91.90;;;;;;5020360;28;20102;-82
2022/05/23 00:53:02;;;;;;;4.38;2.90;;;21.50;91.90;;;;;;5053149;28;20412;-83
2022/05/23 00:55:36;;;;;;;5.72;3.28;;;21.50;91.90;;;;;;5036248;28;20502;-83
2022/05/23 00:58:08;;;;;;;3.40;2.55;;;21.60;91.90;;;;;;5052977;28;20138;-83
2022/05/23 01:00:36;;;;;;;5.82;3.15;;;21.60;91.80;;;;;;5053092;28;20098;-82
2022/05/23 01:03:09;;;;;;;5.35;3.72;;;21.60;91.90;;;;;;5020424;28;20144;-83
2022/05/23 01:05:38;;;;;;;4.72;2.60;;;21.50;91.90;;;;;;5020097;28;20072;-82
2022/05/23 01:08:06;;;;;;;5.95;2.65;;;21.40;92.20;;;;;;5052652;28;20057;-83
2022/05/23 01:10:39;;;;;;;7.18;3.13;;;21.20;92.40;;;;;;5035981;28;20056;-83
2022/05/23 01:13:07;;;;;;;7.55;3.42;;;21.20;92.50;;;;;;5070421;28;20052;-84
2022/05/23 01:15:35;;;;;;;9.75;4.05;;;21.10;92.70;;;;;;5019697;28;20040;-83
2022/05/23 01:18:03;;;;;;;6.47;3.33;;;21.20;92.80;;;;;;5052392;28;20394;-83
2022/05/23 01:20:31;;;;;;;7.70;4.00;;;21.20;92.70;;;;;;5036041;28;20067;-82
2022/05/23 01:23:11;;;;;;;4.70;3.42;;;21.20;92.70;;;;;;5052697;28;20048;-82
2022/05/23 01:25:56;;;;;;;4.37;3.60;;;21.20;92.70;;;;;;5038390;28;20051;-83
2022/05/23 01:28:46;;;;;;;6.90;3.17;;;21.10;93.00;;;;;;5035639;28;20282;-83
2022/05/23 01:31:32;;;;;;;;;;;21.10;92.80;;;;;;5015638;28;20165;-83
2022/05/23 01:34:09;;;;;;;6.03;4.07;;;21.00;92.80;;;;;;5025225;28;19925;-83
2022/05/23 01:36:49;;;;;;;6.15;4.15;;;20.90;93.00;;;;;;5014324;28;20065;-83
2022/05/23 01:39:16;;;;;;;6.82;4.30;;;21.00;93.00;;;;;;5029155;28;20465;-82
2022/05/23 01:41:44;;;;;;;8.23;4.20;;;20.90;93.10;;;;;;5030331;28;20080;-81
2022/05/23 01:44:12;;;;;;;5.97;4.18;;;20.90;93.10;;;;;;5028884;28;20532;-82
2022/05/23 01:46:45;;;;;;;6.55;4.05;;;20.90;93.10;;;;;;5012604;28;20152;-83
2022/05/23 01:49:23;;;;;;;7.75;4.20;;;20.90;93.10;;;;;;5014241;28;20042;-83
2022/05/23 01:51:51;;;;;;;11.27;4.50;;;20.90;93.10;;;;;;4996313;28;20077;-82
2022/05/23 01:54:25;;;;;;;8.70;4.30;;;21.00;93.10;;;;;;4997305;28;20104;-83
2022/05/23 01:56:53;;;;;;;7.50;4.93;;;21.00;93.00;;;;;;5012591;28;20056;-82
2022/05/23 02:02:15;;;;;;;8.90;4.18;;;21.20;92.80;;;;;;5029015;28;20042;-83
2022/05/23 02:04:45;;;;;;;7.35;3.95;;;21.40;92.70;;;;;;4996187;28;20050;-83
2022/05/23 02:07:15;;;;;;;7.30;4.25;;;21.60;92.50;;;;;;5012179;28;20050;-83
2022/05/23 02:09:43;;;;;;;6.55;3.55;;;21.80;92.10;;;;;;5012747;28;20054;-83
2022/05/23 02:12:18;;;;;;;8.30;4.47;;;21.80;91.90;;;;;;5014104;28;20071;-83
2022/05/23 02:14:49;;;;;;;10.05;4.40;;;21.80;91.90;;;;;;4996281;28;20496;-82
2022/05/23 02:17:39;;;;;;;4.63;3.03;;;21.90;91.90;;;;;;5026259;28;20053;-83
2022/05/23 02:20:09;;;;;;;5.50;3.63;;;22.00;91.80;;;;;;5028580;28;20372;-82
2022/05/23 02:22:37;;;;;;;6.43;3.63;;;21.90;91.80;;;;;;5012456;28;20049;-82
2022/05/23 02:25:25;;;;;;;8.05;3.22;;;21.70;91.90;;;;;;5014929;28;20041;-83
2022/05/23 02:27:54;;;;;;;5.07;3.47;;;21.50;92.20;;;;;;5022711;28;20044;-81
2022/05/23 02:30:21;;;;;;;6.90;3.10;;;21.50;92.10;;;;;;5032152;28;20599;-83
2022/05/23 02:32:53;;;;;;;7.47;3.17;;;21.30;92.40;;;;;;5032188;28;20132;-82
2022/05/23 02:35:20;;;;;;;5.65;3.55;;;21.20;92.60;;;;;;5048112;28;20372;-83
2022/05/23 02:37:48;;;;;;;8.45;3.75;;;20.90;92.80;;;;;;5015934;28;20053;-83
2022/05/23 02:40:20;;;;;;;4.25;3.10;;;20.70;93.10;;;;;;5048522;28;20044;-82
2022/05/23 02:42:47;;;;;;;6.78;2.75;;;20.50;93.50;;;;;;5048199;28;20049;-82
2022/05/23 02:45:15;;;;;;;5.05;4.13;;;20.60;93.60;;;;;;5048250;28;20048;-82
2022/05/23 02:47:45;;;;;;;5.75;4.05;;;20.50;93.60;;;;;;5048320;28;20044;-82
2022/05/23 02:50:14;;;;;;;5.70;3.42;;;20.50;93.70;;;;;;5047525;28;20561;-82
2022/05/23 02:52:44;;;;;;;6.03;4.05;;;20.60;93.80;;;;;;5032385;28;20041;-82
2022/05/23 02:55:16;;;;;;;5.55;3.90;;;20.50;94.10;;;;;;5031650;28;20779;-82
2022/05/23 02:57:44;;;;;;;5.45;3.53;;;20.40;94.20;;;;;;5031640;28;20053;-82
2022/05/23 03:00:19;;;;;;;8.23;5.20;;;20.50;94.30;;;;;;5033112;28;20080;-82
2022/05/23 03:03:01;;;;;;;9.15;5.20;;;20.30;94.60;;;;;;5047820;28;20081;-83
2022/05/23 03:05:43;;;;;;;8.02;4.70;;;20.30;94.90;;;;;;5033144;28;20045;-82
2022/05/23 03:08:13;;;;;;;10.02;4.25;;;20.30;95.00;;;;;;5048181;28;20127;-82
2022/05/23 03:10:41;;;;;;;6.22;4.22;;;20.20;95.30;;;;;;5050069;28;20037;-83
2022/05/23 03:13:11;;;;;;;8.82;4.78;;;20.30;95.40;;;;;;5043585;28;20067;-82
2022/05/23 03:15:39;;;;;;;9.07;6.03;;;20.30;95.60;;;;;;5038595;28;20049;-83
2022/05/23 03:18:07;;;;;;;9.27;5.70;;;20.30;95.60;;;;;;5054659;28;20609;-82
2022/05/23 03:20:39;;;;;;;9.50;5.43;;;20.30;95.70;;;;;;5055711;28;20047;-82
2022/05/23 03:28:44;;;;;;;7.28;4.88;;;20.30;95.90;;;;;;5054758;28;20044;-83
2022/05/23 03:31:12;;;;;;;6.40;4.40;;;20.20;95.90;;;;;;5071326;28;20070;-83
2022/05/23 03:33:40;;;;;;;8.00;5.00;;;20.20;96.20;;;;;;5071202;28;20114;-83
2022/05/23 03:36:08;;;;;;;9.60;5.85;;;20.20;96.40;;;;;;5070898;28;20052;-82
2022/05/23 03:38:37;;;;;;;6.95;4.97;;;20.20;96.40;;;;;;5054671;28;20056;-82
2022/05/23 03:41:07;;;;;;;7.57;5.35;;;20.20;96.50;;;;;;5072400;28;20049;-83
2022/05/23 03:43:35;;;;;;;6.82;4.85;;;20.10;96.70;;;;;;5037934;28;20364;-82
2022/05/23 03:46:07;;;;;;;11.77;6.03;;;20.10;96.80;;;;;;5054693;28;20055;-82
2022/05/23 03:48:36;;;;;;;10.02;4.53;;;20.10;96.90;;;;;;5071074;28;20041;-82
2022/05/23 03:51:04;;;;;;;8.30;4.95;;;20.10;97.00;;;;;;5038266;28;20044;-82
2022/05/23 03:53:32;;;;;;;9.93;4.70;;;20.00;97.20;;;;;;5071080;28;20146;-83
2022/05/23 03:56:05;;;;;;;7.00;4.50;;;20.00;97.40;;;;;;5054973;28;20048;-82
2022/05/23 03:58:49;;;;;;;7.82;4.05;;;20.00;97.50;;;;;;5039877;28;20044;-82
2022/05/23 04:01:24;;;;;;;5.68;3.70;;;20.10;97.50;;;;;;5053987;28;20159;-81
2022/05/23 04:03:57;;;;;;;7.85;4.18;;;20.30;97.40;;;;;;5054898;28;20052;-82
2022/05/23 04:06:27;;;;;;;8.00;4.05;;;20.50;96.90;;;;;;5049753;28;20051;-83
2022/05/23 04:08:58;;;;;;;10.55;4.53;;;20.50;96.80;;;;;;5018443;28;20198;-82
2022/05/23 04:11:26;;;;;;;7.45;3.75;;;20.80;96.60;;;;;;5034356;28;20049;-83
2022/05/23 04:13:58;;;;;;;5.82;4.40;;;20.90;96.10;;;;;;5033926;28;20041;-82
2022/05/23 04:16:29;;;;;;;8.02;3.95;;;20.70;96.10;;;;;;5050585;28;20126;-83
2022/05/23 04:18:57;;;;;;;10.55;5.28;;;20.90;96.20;;;;;;5017938;28;20601;-83
2022/05/23 04:21:25;;;;;;;21.05;5.13;;;21.00;95.90;;;;;;5032958;28;20045;-83
2022/05/23 04:23:55;;;;;;;20.58;5.65;;;21.20;95.80;;;;;;5033985;28;20049;-83
2022/05/23 04:26:23;;;;;;;15.57;6.32;;;21.10;95.50;;;;;;5050213;28;20056;-83
2022/05/23 04:28:51;;;;;;;21.15;6.97;;;21.30;95.30;;;;;;5017705;28;20049;-83
2022/05/23 04:31:19;;;;;;;20.77;6.97;;;21.40;95.20;;;;;;5053439;28;20090;-83
2022/05/23 04:36:59;;;;;;;22.50;6.35;;;21.20;95.20;;;;;;5053251;28;20051;-83
2022/05/23 04:39:42;;;;;;;19.17;6.88;;;21.30;95.20;;;;;;5053748;28;20123;-83
2022/05/23 04:42:10;;;;;;;17.08;5.22;;;21.40;95.10;;;;;;5037027;28;20048;-83
2022/05/23 04:44:38;;;;;;;19.27;6.95;;;21.30;94.90;;;;;;5037244;28;20050;-83
2022/05/23 04:49:55;;;;;;;20.80;8.57;;;21.50;94.90;;;;;;5054643;28;20048;-83
2022/05/23 04:52:43;;;;;;;29.77;7.30;;;21.50;94.70;;;;;;5024946;28;20075;-84
2022/05/23 04:55:15;;;;;;;20.15;6.88;;;21.50;94.70;;;;;;5020495;28;20056;-82
2022/05/23 04:57:46;;;;;;;12.50;5.93;;;21.60;94.60;;;;;;5026636;28;20127;-83
2022/05/23 05:00:20;;;;;;;14.50;5.38;;;21.50;94.80;;;;;;5056606;28;20168;-84
2022/05/23 05:03:01;;;;;;;6.32;4.25;;;21.30;95.20;;;;;;5057603;28;20382;-83
2022/05/23 05:05:49;;;;;;;5.22;3.80;;;21.40;95.10;;;;;;5042289;28;20048;-83
2022/05/23 05:08:17;;;;;;;5.80;3.42;;;21.30;95.30;;;;;;5091041;28;20042;-83
2022/05/23 05:10:49;;;;;;;7.88;4.32;;;21.30;95.20;;;;;;5056971;28;20640;-83
2022/05/23 05:13:16;;;;;;;8.18;4.68;;;21.20;95.40;;;;;;5090747;28;20079;-82
2022/05/23 05:15:45;;;;;;;8.48;4.75;;;21.10;95.60;;;;;;5040094;28;20044;-82
2022/05/23 05:18:21;;;;;;;7.70;4.25;;;21.00;95.90;;;;;;5090825;28;20048;-82
2022/05/23 05:21:08;;;;;;;11.65;4.72;;;21.00;96.00;;;;;;5058191;28;20375;-81
2022/05/23 05:23:55;;;;;;;5.68;3.35;;;21.10;95.90;;;;;;5075215;28;20043;-83
2022/05/23 05:26:29;;;;;;;7.60;4.40;;;21.10;96.00;;;;;;5057033;28;20055;-83
2022/05/23 05:28:57;;;;;;;5.28;3.63;;;21.30;96.00;;;;;;5055963;28;20560;-83
2022/05/23 05:31:37;;;;;;;10.00;4.22;;;21.40;95.80;;;;;;5056097;28;20058;-82
2022/05/23 05:34:10;;;;;;;6.05;4.53;;;21.50;95.80;;;;;;5055983;28;20036;-83
2022/05/23 05:36:42;;;;;;;7.75;4.38;;;21.50;95.90;;;;;;5055542;28;20533;-83
2022/05/23 05:39:11;;;;;;;12.60;4.65;;;21.60;96.00;;;;;;5055929;28;20061;-82
2022/05/23 05:41:53;;;;;;;17.75;6.03;;;21.60;96.20;;;;;;5072268;28;20094;-83
2022/05/23 05:44:25;;;;;;;27.67;6.75;;;21.70;96.40;;;;;;5039768;28;20090;-83
2022/05/23 05:46:57;;;;;;;15.15;5.60;;;21.80;96.40;;;;;;5039350;28;20171;-83
2022/05/23 05:49:43;;;;;;;17.80;5.43;;;21.80;96.70;;;;;;5055712;28;20048;-84
2022/05/23 05:52:15;;;;;;;17.38;5.00;;;21.80;96.80;;;;;;5035799;28;20106;-83
2022/05/23 05:55:04;;;;;;;15.35;5.35;;;21.90;96.80;;;;;;5038175;28;20059;-83
2022/05/23 05:57:32;;;;;;;9.68;4.60;;;21.90;97.00;;;;;;5035596;28;20141;-83
2022/05/23 06:00:07;;;;;;;9.82;4.70;;;22.00;97.00;;;;;;5020105;28;20409;-83
2022/05/23 06:02:44;;;;;;;10.15;4.35;;;22.10;96.90;;;;;;5053335;28;20549;-83
2022/05/23 06:05:17;;;;;;;14.70;4.70;;;22.00;97.20;;;;;;5036435;28;20139;-83
2022/05/23 06:13:48;;;;;;;10.18;4.57;;;22.40;97.10;;;;;;5051946;28;20102;-84
2022/05/23 06:16:36;;;;;;;11.35;5.40;;;22.40;97.20;;;;;;5038266;28;20045;-83
2022/05/23 06:19:11;;;;;;;9.40;4.40;;;22.50;97.30;;;;;;5036649;28;20132;-83
2022/05/23 06:21:52;;;;;;;10.85;4.50;;;22.80;97.20;;;;;;5052047;28;20716;-84
2022/05/23 06:24:20;;;;;;;9.60;4.03;;;23.10;96.90;;;;;;5052124;28;20041;-83
2022/05/23 06:26:51;;;;;;;10.27;3.97;;;23.00;96.70;;;;;;5051727;28;20059;-84
2022/05/23 06:29:21;;;;;;;8.15;4.15;;;22.90;96.90;;;;;;5051450;28;20047;-84
2022/05/23 06:31:50;;;;;;;8.75;4.88;;;23.00;97.00;;;;;;5034899;28;20075;-81
2022/05/23 06:34:22;;;;;;;9.52;4.32;;;23.30;96.60;;;;;;5051994;28;20068;-81
2022/05/23 06:36:54;;;;;;;4.07;2.92;;;23.50;96.00;;;;;;5051930;28;20041;-81
2022/05/23 06:39:22;;;;;;;6.38;3.78;;;23.60;95.70;;;;;;5051867;28;20128;-81
2022/05/23 06:42:12;;;;;;;6.63;3.88;;;24.00;95.10;;;;;;5054769;28;20511;-80
2022/05/23 06:45:18;;;;;;;4.10;3.15;;;24.10;94.40;;;;;;5070557;28;20059;-80
2022/05/23 06:48:04;;;;;;;7.43;4.18;;;24.30;93.80;;;;;;5055480;28;20068;-80
2022/05/23 06:50:50;;;;;;;6.18;3.55;;;24.60;93.50;;;;;;5068341;28;20074;-81
2022/05/23 06:53:32;;;;;;;5.85;3.85;;;25.00;92.70;;;;;;5059257;28;20044;-81
2022/05/23 06:56:13;;;;;;;5.30;3.20;;;25.10;92.60;;;;;;5043846;28;20044;-82
2022/05/23 06:58:43;;;;;;;8.75;4.18;;;25.20;92.30;;;;;;5075317;28;20451;-80
2022/05/23 07:01:24;;;;;;;11.23;3.97;;;25.40;91.90;;;;;;5075257;28;20521;-81
2022/05/23 07:04:09;;;;;;;9.60;3.58;;;25.70;91.70;;;;;;5075568;28;20055;-81
2022/05/23 07:14:49;;;;;;;15.38;3.92;;;26.10;91.30;;;;;;5058677;28;20040;-81
2022/05/23 07:17:17;;;;;;;6.72;3.80;;;26.10;91.10;;;;;;5058631;28;20055;-81
2022/05/23 07:20:03;;;;;;;11.93;3.90;;;26.10;91.20;;;;;;5074890;28;20040;-82
2022/05/23 07:22:32;;;;;;;7.82;4.22;;;26.30;91.40;;;;;;5042330;28;20282;-81
2022/05/23 07:25:01;;;;;;;14.40;4.18;;;26.30;91.00;;;;;;5058760;28;20379;-82
2022/05/23 07:27:30;;;;;;;7.53;3.63;;;26.40;91.00;;;;;;5041989;28;20052;-82
2022/05/23 07:29:58;;;;;;;5.90;3.92;;;26.60;90.90;;;;;;5041559;28;20059;-80
2022/05/23 07:32:30;;;;;;;10.07;4.18;;;26.60;90.70;;;;;;5058911;28;20048;-82
2022/05/23 07:34:59;;;;;;;10.63;3.78;;;26.60;90.30;;;;;;5074741;28;20520;-84
2022/05/23 07:37:28;;;;;;;15.52;4.50;;;26.50;90.10;;;;;;5058084;28;20044;-82
2022/05/23 07:40:01;;;;;;;13.65;4.68;;;26.30;89.60;;;;;;5058873;28;20512;-81
2022/05/23 07:42:47;;;;;;;11.73;3.90;;;26.50;89.90;;;;;;5030621;28;20053;-84
2022/05/23 07:45:15;;;;;;;10.50;3.88;;;26.50;89.80;;;;;;5037773;28;20074;-82
2022/05/23 07:47:48;;;;;;;6.82;3.42;;;26.80;90.10;;;;;;5022356;28;20051;-82
2022/05/23 07:50:28;;;;;;;7.82;3.85;;;26.90;90.00;;;;;;5023321;28;20521;-81
2022/05/23 08:01:28;;;;;;;8.60;4.22;;;27.40;86.80;;;;;;5037768;28;20103;-82
2022/05/23 08:04:00;;;;;;;6.18;3.95;;;27.40;86.80;;;;;;5037357;28;20055;-81
2022/05/23 08:06:35;;;;;;;6.82;3.55;;;27.10;87.30;;;;;;5041163;28;20506;-82
2022/05/23 08:09:03;;;;;;;8.32;3.92;;;27.00;88.40;;;;;;5055042;28;20052;-83
2022/05/23 08:11:31;;;;;;;5.18;3.38;;;27.10;89.40;;;;;;5021469;28;20186;-82
2022/05/23 08:14:10;;;;;;;5.80;3.50;;;27.30;89.10;;;;;;5022227;28;20055;-82
2022/05/23 08:16:52;;;;;;;7.15;3.67;;;27.30;88.50;;;;;;5037255;28;20041;-81
2022/05/23 08:19:29;;;;;;;7.47;4.03;;;27.30;88.50;;;;;;5022005;28;20183;-84
2022/05/23 08:22:06;;;;;;;6.15;3.58;;;27.20;89.10;;;;;;5037466;28;20052;-82
2022/05/23 08:24:39;;;;;;;6.13;3.25;;;27.30;89.80;;;;;;5038357;28;20040;-83
2022/05/23 08:27:07;;;;;;;9.35;3.83;;;27.30;89.60;;;;;;5037326;28;20044;-83
2022/05/23 08:29:43;;;;;;;9.45;3.97;;;27.40;89.30;;;;;;5037527;28;20044;-83
2022/05/23 08:32:14;;;;;;;5.55;3.92;;;27.70;88.90;;;;;;5053445;28;20063;-82
2022/05/23 08:35:03;;;;;;;5.35;3.55;;;27.70;88.50;;;;;;5064080;28;20142;-82
2022/05/23 08:37:30;;;;;;;7.03;3.50;;;27.90;88.50;;;;;;5056883;28;20044;-83
2022/05/23 08:39:59;;;;;;;8.30;4.18;;;27.90;87.60;;;;;;5073661;28;20044;-83
2022/05/23 08:42:55;;;;;;;7.97;4.03;;;27.80;87.40;;;;;;5057155;28;20482;-83
2022/05/23 08:45:42;;;;;;;7.10;3.47;;;27.90;87.60;;;;;;5056917;28;20052;-83
2022/05/23 08:48:20;;;;;;;10.02;3.97;;;28.00;87.70;;;;;;5056825;28;20171;-81
2022/05/23 08:50:59;;;;;;;6.38;3.80;;;28.30;87.50;;;;;;5073809;28;20097;-83
2022/05/23 08:53:53;;;;;;;7.13;3.83;;;28.40;87.30;;;;;;5059250;28;20677;-82
2022/05/23 08:56:45;;;;;;;8.82;3.97;;;28.50;87.30;;;;;;5073054;28;20041;-83
2022/05/23 08:59:22;;;;;;;8.13;4.00;;;28.40;87.00;;;;;;5057995;28;20052;-83
2022/05/23 09:01:52;;;;;;;8.98;4.47;;;28.40;87.50;;;;;;5056428;28;20044;-80
2022/05/23 09:04:44;;;;;;;7.05;3.88;;;28.60;87.70;;;;;;5073185;28;20125;-82
2022/05/23 09:07:33;;;;;;;8.70;4.25;;;28.50;87.70;;;;;;5072935;28;20047;-83
2022/05/23 09:10:08;;;;;;;6.63;3.92;;;28.60;87.00;;;;;;5041003;28;20450;-83
2022/05/23 09:12:36;;;;;;;6.30;3.83;;;28.60;86.50;;;;;;5073048;28;20044;-81
2022/05/23 09:15:04;;;;;;;6.60;4.25;;;28.80;87.90;;;;;;5073206;28;20367;-83
2022/05/23 09:17:39;;;;;;;10.48;5.10;;;28.90;86.70;;;;;;5072901;28;20394;-82
2022/05/23 09:20:13;;;;;;;7.50;3.60;;;29.00;87.50;;;;;;5056465;28;20047;-80
2022/05/23 09:22:53;;;;;;;7.78;4.18;;;29.10;87.40;;;;;;5040253;28;20056;-81
2022/05/23 09:25:25;;;;;;;6.68;3.60;;;28.90;86.90;;;;;;5073370;28;20517;-83
2022/05/23 09:28:23;;;;;;;5.97;4.43;;;28.80;88.10;;;;;;5056052;28;20056;-83
2022/05/23 09:31:18;;;;;;;9.23;4.63;;;28.80;87.60;;;;;;5054395;28;20049;-82
2022/05/23 09:33:49;;;;;;;7.97;3.80;;;28.70;87.30;;;;;;5030079;28;20072;-82
2022/05/23 09:36:38;;;;;;;8.13;3.67;;;28.70;86.60;;;;;;5033129;28;20052;-83
2022/05/23 09:39:20;;;;;;;7.78;4.20;;;29.00;86.70;;;;;;5049257;28;20049;-82
2022/05/23 09:47:45;;;;;;;5.80;3.47;;;29.10;85.10;;;;;;5049064;28;20060;-82
2022/05/23 09:50:30;;;;;;;4.40;3.05;;;29.30;83.70;;;;;;5048781;28;20040;-83
2022/05/23 09:53:04;;;;;;;9.35;4.57;;;29.30;83.00;;;;;;5049797;28;20044;-82
2022/05/23 09:55:35;;;;;;;9.98;3.97;;;29.40;82.90;;;;;;5033401;28;20497;-81
2022/05/23 09:58:11;;;;;;;6.97;3.75;;;29.50;83.20;;;;;;5048383;28;20529;-83
2022/05/23 10:01:07;;;;;;;7.57;4.13;;;29.50;83.00;;;;;;5049248;28;20493;-82
2022/05/23 10:03:37;;;;;;;;;;;29.60;82.50;;;;;;5050526;28;20052;-82
2022/05/23 10:06:14;;;;;;;7.40;4.45;;;29.60;82.50;;;;;;5048896;28;19925;-83
2022/05/23 10:08:44;;;;;;;5.63;4.43;;;29.70;83.10;;;;;;5048910;28;20044;-82
2022/05/23 10:11:38;;;;;;;6.78;4.07;;;29.80;83.30;;;;;;5032338;28;20052;-82
2022/05/23 10:14:14;;;;;;;7.95;4.15;;;29.80;83.10;;;;;;5048375;28;20075;-82
2022/05/23 10:16:47;;;;;;;5.22;3.55;;;29.80;83.10;;;;;;5032106;28;20795;-81
2022/05/23 10:19:36;;;;;;;9.88;3.75;;;29.80;83.00;;;;;;5032733;28;20147;-82
2022/05/23 10:22:20;;;;;;;7.05;3.67;;;29.80;82.90;;;;;;5036580;28;20053;-82
2022/05/23 10:25:20;;;;;;;6.47;3.33;;;29.80;82.70;;;;;;5052878;28;20499;-81
2022/05/23 10:27:54;;;;;;;9.85;3.67;;;29.90;81.70;;;;;;5022209;28;20045;-83
2022/05/23 10:30:28;;;;;;;6.50;3.90;;;29.90;81.20;;;;;;5051848;28;20049;-81
2022/05/23 10:33:24;;;;;;;7.38;3.95;;;29.90;80.90;;;;;;5019095;28;20084;-81
2022/05/23 10:36:21;;;;;;;10.55;4.18;;;29.80;81.80;;;;;;5017357;28;20057;-82
2022/05/23 10:44:44;;;;;;;7.80;3.83;;;29.90;81.00;;;;;;5035006;28;20041;-81
2022/05/23 10:47:32;;;;;;;7.57;3.33;;;29.60;81.10;;;;;;5034997;28;20052;-82
2022/05/23 10:50:19;;;;;;;;;;;29.60;81.40;;;;;;5019137;28;20061;-81
2022/05/23 10:53:01;;;;;;;4.78;3.13;;;29.70;81.40;;;;;;5035452;28;19935;-82
2022/05/23 10:55:52;;;;;;;8.60;3.55;;;29.70;81.60;;;;;;5035362;28;20045;-82
2022/05/23 10:58:25;;;;;;;8.45;3.67;;;29.80;82.10;;;;;;5029710;28;20056;-82
2022/05/23 11:00:56;;;;;;;6.40;3.25;;;29.70;82.00;;;;;;5034848;28;20041;-82
2022/05/23 11:03:36;;;;;;;6.32;3.55;;;29.80;82.60;;;;;;5051561;28;20503;-81
2022/05/23 11:06:22;;;;;;;4.20;2.58;;;29.80;83.10;;;;;;5034898;28;20072;-83
2022/05/23 11:09:51;;;;;;;5.82;3.10;;;29.70;83.10;;;;;;5052064;28;20132;-81
2022/05/23 11:12:21;;;;;;;7.53;3.00;;;29.60;84.00;;;;;;4990869;28;20046;-82
2022/05/23 11:15:01;;;;;;;7.88;3.60;;;29.60;83.70;;;;;;5037479;28;20095;-81
2022/05/23 11:17:34;;;;;;;6.47;3.72;;;29.60;83.40;;;;;;5014255;28;20060;-82
2022/05/23 11:20:28;;;;;;;5.90;3.40;;;29.70;83.50;;;;;;5047818;28;20496;-82
2022/05/23 11:23:02;;;;;;;5.60;4.05;;;29.80;83.80;;;;;;5031027;28;20143;-83
2022/05/23 11:25:43;;;;;;;8.15;3.72;;;29.70;83.70;;;;;;5031414;28;20045;-81
2022/05/23 11:34:10;;;;;;;8.73;3.33;;;29.70;83.30;;;;;;5055835;28;20056;-82
2022/05/23 11:36:57;;;;;;;10.05;3.70;;;29.80;82.40;;;;;;5057873;28;20101;-82
2022/05/23 11:39:59;;;;;;;6.03;3.72;;;29.80;81.80;;;;;;5041612;28;20059;-83
2022/05/23 11:43:02;;;;;;;6.28;3.53;;;29.50;83.60;;;;;;5072664;28;20093;-81
2022/05/23 11:48:29;;;;;;;10.93;4.00;;;29.70;82.70;;;;;;5064514;28;20057;-84
2022/05/23 11:51:14;;;;;;;6.95;4.00;;;29.60;82.90;;;;;;5038594;28;20056;-81
2022/05/23 11:53:58;;;;;;;13.05;3.92;;;29.40;84.20;;;;;;5043801;28;20040;-82
2022/05/23 11:56:43;;;;;;;7.20;3.90;;;29.50;84.10;;;;;;5055045;28;20052;-81
2022/05/23 11:59:23;;;;;;;6.32;3.33;;;29.40;84.20;;;;;;5051026;28;20036;-82
2022/05/23 12:02:10;;;;;;;7.90;3.80;;;29.40;83.70;;;;;;5041736;28;20675;-82
2022/05/23 12:04:44;;;;;;;6.88;3.35;;;29.40;84.60;;;;;;5054938;28;20048;-81
2022/05/23 12:07:41;;;;;;;8.00;3.67;;;29.20;85.20;;;;;;5072320;28;20048;-81
2022/05/23 12:10:28;;;;;;;7.93;3.50;;;29.10;84.70;;;;;;5048540;28;20055;-82
2022/05/23 12:13:27;;;;;;;11.40;4.35;;;29.00;84.70;;;;;;5054409;28;20043;-80
2022/05/23 12:15:58;;;;;;;10.27;3.53;;;28.70;85.70;;;;;;5036825;28;20384;-82
2022/05/23 12:18:25;;;;;;;7.50;3.55;;;28.80;86.10;;;;;;5054140;28;20443;-81
2022/05/23 12:20:57;;;;;;;10.00;3.88;;;29.00;86.20;;;;;;5020944;28;20068;-80
2022/05/23 12:23:42;;;;;;;15.00;4.47;;;28.90;86.70;;;;;;5020958;28;20495;-81
2022/05/23 12:26:10;;;;;;;9.85;5.05;;;28.90;86.00;;;;;;5037391;28;20217;-81
2022/05/23 12:28:58;;;;;;;8.75;5.13;;;28.80;87.50;;;;;;5053780;28;20044;-81
2022/05/23 12:31:30;;;;;;;10.38;4.45;;;29.00;86.00;;;;;;5032809;28;20045;-81
2022/05/23 12:34:01;;;;;;;12.07;3.72;;;29.00;85.50;;;;;;5035775;28;20043;-82
2022/05/23 12:36:32;;;;;;;10.02;3.97;;;28.90;86.70;;;;;;5035128;28;20037;-83
2022/05/23 12:39:10;;;;;;;9.13;4.25;;;28.90;87.40;;;;;;5017618;28;20052;-82
2022/05/23 12:42:29;;;;;;;11.77;4.57;;;28.70;87.80;;;;;;5051001;28;20060;-83
2022/05/23 12:45:16;;;;;;;9.25;4.70;;;28.60;87.30;;;;;;5010769;28;20048;-83
2022/05/23 12:48:07;;;;;;;8.90;5.20;;;28.50;87.00;;;;;;5051897;28;20647;-82
2022/05/23 12:51:04;;;;;;;10.00;4.88;;;28.30;89.10;;;;;;5025992;28;20079;-84
2022/05/23 12:53:47;;;;;;;7.38;4.28;;;28.40;87.00;;;;;;5034603;28;20115;-82
2022/05/23 12:56:16;;;;;;;6.30;4.30;;;28.40;86.50;;;;;;5018076;28;20049;-82
2022/05/23 12:59:03;;;;;;;12.35;4.50;;;28.30;86.60;;;;;;5017701;28;20567;-82
2022/05/23 13:01:37;;;;;;;6.00;3.63;;;28.30;87.90;;;;;;5019491;28;20087;-83
2022/05/23 13:04:15;;;;;;;13.40;4.45;;;28.40;88.30;;;;;;5054028;28;20397;-84
2022/05/23 13:07:10;;;;;;;7.38;3.80;;;28.40;88.50;;;;;;5035056;28;20049;-83
2022/05/23 13:09:48;;;;;;;7.45;4.53;;;28.30;88.80;;;;;;5051375;28;20499;-83
2022/05/23 13:12:36;;;;;;;8.80;4.38;;;28.30;88.90;;;;;;5036140;28;20049;-83
2022/05/23 13:15:07;;;;;;;8.07;4.35;;;28.20;89.60;;;;;;5050709;28;20071;-83
2022/05/23 13:17:44;;;;;;;9.35;3.67;;;28.20;90.10;;;;;;5035217;28;20136;-83
2022/05/23 13:23:18;;;;;;;8.43;3.75;;;28.10;90.30;;;;;;5049892;28;20098;-83
2022/05/23 13:25:47;;;;;;;7.93;4.03;;;28.00;90.50;;;;;;5050653;28;20080;-83
2022/05/23 13:28:16;;;;;;;12.23;3.67;;;28.10;90.50;;;;;;5049801;28;20052;-83
2022/05/23 13:30:56;;;;;;;9.38;4.22;;;27.90;90.60;;;;;;5016936;28;20143;-83
2022/05/23 13:33:45;;;;;;;7.85;4.30;;;27.70;90.80;;;;;;5035346;28;20037;-83
2022/05/23 13:36:14;;;;;;;11.65;3.72;;;27.60;91.10;;;;;;5033753;28;20048;-82
2022/05/23 13:39:03;;;;;;;7.68;4.07;;;27.50;91.20;;;;;;5050267;28;20041;-83
2022/05/23 13:41:32;;;;;;;10.57;4.68;;;27.60;90.90;;;;;;5050113;28;20513;-82
2022/05/23 13:44:00;;;;;;;12.13;3.83;;;27.70;91.10;;;;;;5050493;28;20041;-83
2022/05/23 13:46:37;;;;;;;16.63;4.63;;;27.70;91.20;;;;;;5033411;28;20060;-82
2022/05/23 13:49:10;;;;;;;6.15;3.53;;;27.60;91.20;;;;;;5049968;28;20053;-81
2022/05/23 13:51:46;;;;;;;11.85;5.93;;;27.60;91.20;;;;;;5062980;28;20106;-82
2022/05/23 13:54:25;;;;;;;10.48;4.50;;;27.50;91.40;;;;;;5065185;28;20076;-82
2022/05/23 13:56:58;;;;;;;9.77;4.90;;;27.30;91.80;;;;;;5033878;28;20078;-82
2022/05/23 13:59:33;;;;;;;10.90;4.82;;;27.30;91.80;;;;;;5032966;28;20053;-81
2022/05/23 14:02:06;;;;;;;8.80;4.13;;;27.20;92.00;;;;;;5051008;28;20052;-82
2022/05/23 14:04:39;;;;;;;9.43;4.15;;;27.20;92.10;;;;;;5066487;28;20052;-83
2022/05/23 14:07:13;;;;;;;8.77;3.85;;;27.20;91.90;;;;;;5049587;28;20037;-82
2022/05/23 14:09:51;;;;;;;8.38;4.35;;;27.30;91.70;;;;;;5049454;28;20059;-83
2022/05/23 14:12:27;;;;;;;9.68;4.10;;;27.40;91.60;;;;;;5051118;28;20057;-82
2022/05/23 14:15:00;;;;;;;7.55;4.22;;;27.40;91.10;;;;;;5049686;28;20053;-81
2022/05/23 14:17:30;;;;;;;8.95;4.43;;;27.50;90.80;;;;;;5049113;28;20053;-82
2022/05/23 14:20:30;;;;;;;7.10;3.25;;;27.30;90.60;;;;;;5049019;28;20061;-82
2022/05/23 14:23:10;;;;;;;8.30;4.55;;;27.30;91.40;;;;;;5049097;28;20080;-82
2022/05/23 14:25:42;;;;;;;8.43;3.90;;;27.40;91.50;;;;;;5049236;28;20506;-81
2022/05/23 14:28:27;;;;;;;10.15;4.70;;;27.40;91.30;;;;;;5066232;28;20045;-82
2022/05/23 14:31:04;;;;;;;14.10;3.97;;;27.40;91.40;;;;;;5049089;28;20053;-82
2022/05/23 14:33:39;;;;;;;9.40;4.07;;;27.40;90.80;;;;;;5049070;28;20057;-81
2022/05/23 14:36:09;;;;;;;6.75;4.03;;;27.20;90.20;;;;;;5066477;28;20167;-82